createdAt,value
2022-08-17T00:00:43.429Z,1003.50
2022-08-17T00:01:22.525Z,1003.47
2022-08-17T00:02:25.851Z,1003.48
2022-08-17T00:03:22.344Z,1003.50
2022-08-17T00:04:20.252Z,1003.50
2022-08-17T00:05:20.244Z,1003.54
2022-08-17T00:06:20.242Z,1003.55
2022-08-17T00:07:20.212Z,1003.52
2022-08-17T00:08:20.212Z,1003.53
2022-08-17T00:09:20.190Z,1003.54
2022-08-17T00:10:20.191Z,1003.54
2022-08-17T00:11:20.191Z,1003.54
2022-08-17T00:12:40.833Z,1003.53
2022-08-17T00:13:21.145Z,1003.48
2022-08-17T00:14:20.143Z,1003.48
2022-08-17T00:15:20.121Z,1003.46
2022-08-17T00:16:20.135Z,1003.43
2022-08-17T00:17:21.106Z,1003.43
2022-08-17T00:19:01.560Z,1003.48
2022-08-17T00:19:21.083Z,1003.45
2022-08-17T00:20:20.079Z,1003.46
2022-08-17T00:21:25.362Z,1003.47
2022-08-17T00:22:34.672Z,1003.44
2022-08-17T00:23:21.042Z,1003.43
2022-08-17T00:24:20.048Z,1003.40
2022-08-17T00:25:20.022Z,1003.41
2022-08-17T00:26:34.613Z,1003.40
2022-08-17T00:27:20.988Z,1003.36
2022-08-17T00:28:19.979Z,1003.36
2022-08-17T00:29:20.337Z,1003.37
2022-08-17T00:30:19.958Z,1003.36
2022-08-17T00:31:19.967Z,1003.36
2022-08-17T00:33:12.177Z,1003.36
2022-08-17T00:33:20.922Z,1003.35
2022-08-17T00:34:19.926Z,1003.35
2022-08-17T00:35:19.900Z,1003.38
2022-08-17T00:36:19.933Z,1003.35
2022-08-17T00:37:19.879Z,1003.31
2022-08-17T00:38:19.875Z,1003.33
2022-08-17T00:39:19.867Z,1003.29
2022-08-17T00:40:19.846Z,1003.25
2022-08-17T00:41:19.848Z,1003.24
2022-08-17T00:42:19.832Z,1003.24
2022-08-17T00:43:19.818Z,1003.21
2022-08-17T00:44:19.803Z,1003.19
2022-08-17T00:45:19.797Z,1003.22
2022-08-17T00:46:19.801Z,1003.20
2022-08-17T00:47:19.785Z,1003.22
2022-08-17T00:48:29.150Z,1003.23
2022-08-17T00:49:20.757Z,1003.20
2022-08-17T00:50:19.735Z,1003.18
2022-08-17T00:51:19.737Z,1003.20
2022-08-17T00:52:19.712Z,1003.18
2022-08-17T00:53:19.701Z,1003.18
2022-08-17T00:54:19.694Z,1003.20
2022-08-17T00:55:19.680Z,1003.20
2022-08-17T00:56:19.690Z,1003.22
2022-08-17T00:57:19.657Z,1003.19
2022-08-17T00:58:19.644Z,1003.17
2022-08-17T00:59:20.643Z,1003.16
2022-08-17T01:00:19.623Z,1003.15
2022-08-17T01:01:21.761Z,1003.12
2022-08-17T01:02:19.616Z,1003.12
2022-08-17T01:03:19.598Z,1003.13
2022-08-17T01:04:19.581Z,1003.14
2022-08-17T01:05:19.569Z,1003.15
2022-08-17T01:06:19.568Z,1003.13
2022-08-17T01:07:19.574Z,1003.12
2022-08-17T01:08:19.543Z,1003.12
2022-08-17T01:09:19.533Z,1003.12
2022-08-17T01:11:00.424Z,1003.14
2022-08-17T01:11:20.507Z,1003.16
2022-08-17T01:12:19.517Z,1003.13
2022-08-17T01:13:19.483Z,1003.16
2022-08-17T01:14:19.476Z,1003.17
2022-08-17T01:15:19.467Z,1003.17
2022-08-17T01:16:19.455Z,1003.16
2022-08-17T01:17:19.469Z,1003.16
2022-08-17T01:18:19.430Z,1003.16
2022-08-17T01:19:19.432Z,1003.19
2022-08-17T01:20:19.404Z,1003.20
2022-08-17T01:21:19.399Z,1003.21
2022-08-17T01:22:19.402Z,1003.22
2022-08-17T01:23:20.720Z,1003.21
2022-08-17T01:24:19.362Z,1003.21
2022-08-17T01:25:19.358Z,1003.21
2022-08-17T01:26:19.347Z,1003.26
2022-08-17T01:27:20.534Z,1003.26
2022-08-17T01:28:33.369Z,1003.28
2022-08-17T01:29:20.305Z,1003.30
2022-08-17T01:30:57.901Z,1003.30
2022-08-17T01:31:20.288Z,1003.28
2022-08-17T01:32:19.293Z,1003.28
2022-08-17T01:33:19.261Z,1003.29
2022-08-17T01:34:19.257Z,1003.28
2022-08-17T01:35:19.239Z,1003.28
2022-08-17T01:36:19.227Z,1003.27
2022-08-17T01:37:19.237Z,1003.27
2022-08-17T01:38:19.205Z,1003.25
2022-08-17T01:39:20.200Z,1003.25
2022-08-17T01:40:19.190Z,1003.21
2022-08-17T01:41:19.174Z,1003.24
2022-08-17T01:42:19.179Z,1003.25
2022-08-17T01:43:19.153Z,1003.25
2022-08-17T01:44:19.144Z,1003.28
2022-08-17T01:45:19.128Z,1003.28
2022-08-17T01:46:19.123Z,1003.30
2022-08-17T01:47:19.129Z,1003.33
2022-08-17T01:48:19.101Z,1003.34
2022-08-17T01:49:19.083Z,1003.33
2022-08-17T01:50:19.073Z,1003.32
2022-08-17T01:51:19.063Z,1003.32
2022-08-17T01:52:19.066Z,1003.33
2022-08-17T01:53:19.039Z,1003.33
2022-08-17T01:54:19.034Z,1003.29
2022-08-17T01:55:19.025Z,1003.29
2022-08-17T01:56:19.006Z,1003.29
2022-08-17T01:57:19.013Z,1003.31
2022-08-17T01:58:18.984Z,1003.33
2022-08-17T01:59:18.979Z,1003.31
2022-08-17T02:00:18.969Z,1003.29
2022-08-17T02:01:19.019Z,1003.31
2022-08-17T02:02:31.059Z,1003.33
2022-08-17T02:03:19.938Z,1003.32
2022-08-17T02:04:18.931Z,1003.32
2022-08-17T02:05:18.906Z,1003.29
2022-08-17T02:06:27.958Z,1003.30
2022-08-17T02:07:19.904Z,1003.29
2022-08-17T02:08:20.337Z,1003.28
2022-08-17T02:09:18.879Z,1003.27
2022-08-17T02:10:19.980Z,1003.28
2022-08-17T02:11:18.842Z,1003.29
2022-08-17T02:12:38.124Z,1003.29
2022-08-17T02:13:19.825Z,1003.28
2022-08-17T02:14:18.806Z,1003.25
2022-08-17T02:15:18.804Z,1003.30
2022-08-17T02:16:18.786Z,1003.35
2022-08-17T02:17:18.787Z,1003.34
2022-08-17T02:18:18.767Z,1003.34
2022-08-17T02:19:18.756Z,1003.28
2022-08-17T02:20:18.742Z,1003.30
2022-08-17T02:21:19.736Z,1003.28
2022-08-17T02:22:18.740Z,1003.26
2022-08-17T02:23:18.709Z,1003.29
2022-08-17T02:24:18.694Z,1003.28
2022-08-17T02:25:19.692Z,1003.23
2022-08-17T02:26:24.088Z,1003.25
2022-08-17T02:27:19.686Z,1003.24
2022-08-17T02:28:18.657Z,1003.22
2022-08-17T02:29:18.649Z,1003.21
2022-08-17T02:30:59.554Z,1003.20
2022-08-17T02:31:19.639Z,1003.22
2022-08-17T02:32:25.370Z,1003.22
2022-08-17T02:33:19.619Z,1003.23
2022-08-17T02:34:18.592Z,1003.24
2022-08-17T02:35:19.379Z,1003.23
2022-08-17T02:36:18.566Z,1003.24
2022-08-17T02:37:18.574Z,1003.22
2022-08-17T02:38:18.553Z,1003.22
2022-08-17T02:39:18.537Z,1003.16
2022-08-17T02:40:18.517Z,1003.19
2022-08-17T02:41:19.518Z,1003.20
2022-08-17T02:42:18.520Z,1003.18
2022-08-17T02:43:18.492Z,1003.23
2022-08-17T02:44:38.677Z,1003.20
2022-08-17T02:45:19.470Z,1003.18
2022-08-17T02:46:18.452Z,1003.18
2022-08-17T02:47:18.466Z,1003.21
2022-08-17T02:48:30.561Z,1003.22
2022-08-17T02:49:19.418Z,1003.21
2022-08-17T02:50:18.406Z,1003.22
2022-08-17T02:51:18.403Z,1003.23
2022-08-17T02:52:18.397Z,1003.22
2022-08-17T02:53:19.385Z,1003.22
2022-08-17T02:54:39.256Z,1003.21
2022-08-17T02:55:19.353Z,1003.18
2022-08-17T02:56:18.345Z,1003.23
2022-08-17T02:57:18.351Z,1003.22
2022-08-17T02:58:18.323Z,1003.21
2022-08-17T02:59:19.313Z,1003.20
2022-08-17T03:00:18.301Z,1003.20
2022-08-17T03:01:18.362Z,1003.21
2022-08-17T03:02:18.290Z,1003.19
2022-08-17T03:03:18.267Z,1003.20
2022-08-17T03:04:18.249Z,1003.19
2022-08-17T03:05:18.240Z,1003.17
2022-08-17T03:06:18.234Z,1003.16
2022-08-17T03:07:18.239Z,1003.17
2022-08-17T03:08:18.212Z,1003.17
2022-08-17T03:09:18.201Z,1003.18
2022-08-17T03:10:18.182Z,1003.18
2022-08-17T03:11:18.183Z,1003.18
2022-08-17T03:12:18.178Z,1003.16
2022-08-17T03:13:18.170Z,1003.16
2022-08-17T03:14:18.141Z,1003.19
2022-08-17T03:15:18.132Z,1003.16
2022-08-17T03:16:18.129Z,1003.17
2022-08-17T03:17:18.120Z,1003.17
2022-08-17T03:18:24.127Z,1003.19
2022-08-17T03:19:19.088Z,1003.17
2022-08-17T03:20:18.074Z,1003.19
2022-08-17T03:21:18.059Z,1003.16
2022-08-17T03:22:36.128Z,1003.14
2022-08-17T03:23:19.037Z,1003.13
2022-08-17T03:24:19.023Z,1003.13
2022-08-17T03:25:19.470Z,1003.14
2022-08-17T03:26:18.000Z,1003.10
2022-08-17T03:27:18.007Z,1003.11
2022-08-17T03:28:17.984Z,1003.10
2022-08-17T03:29:17.968Z,1003.06
2022-08-17T03:30:17.955Z,1003.07
2022-08-17T03:31:17.982Z,1003.09
2022-08-17T03:32:17.955Z,1003.08
2022-08-17T03:33:17.923Z,1003.07
2022-08-17T03:34:17.924Z,1003.05
2022-08-17T03:35:17.906Z,1003.05
2022-08-17T03:36:17.886Z,1003.03
2022-08-17T03:37:17.899Z,1003.02
2022-08-17T03:38:17.875Z,1003.04
2022-08-17T03:39:17.861Z,1003.04
2022-08-17T03:40:17.845Z,1003.09
2022-08-17T03:41:18.839Z,1003.13
2022-08-17T03:42:32.413Z,1003.14
2022-08-17T03:43:18.824Z,1003.15
2022-08-17T03:44:17.809Z,1003.15
2022-08-17T03:45:17.787Z,1003.17
2022-08-17T03:46:34.619Z,1003.17
2022-08-17T03:47:18.789Z,1003.17
2022-08-17T03:48:17.753Z,1003.17
2022-08-17T03:49:17.756Z,1003.15
2022-08-17T03:50:17.740Z,1003.18
2022-08-17T03:51:17.722Z,1003.16
2022-08-17T03:52:17.708Z,1003.13
2022-08-17T03:53:17.716Z,1003.16
2022-08-17T03:54:17.694Z,1003.15
2022-08-17T03:55:17.703Z,1003.18
2022-08-17T03:56:17.672Z,1003.14
2022-08-17T03:57:17.657Z,1003.16
2022-08-17T03:58:17.659Z,1003.22
2022-08-17T03:59:21.231Z,1003.20
2022-08-17T04:00:17.618Z,1003.24
2022-08-17T04:01:17.650Z,1003.26
2022-08-17T04:02:17.604Z,1003.26
2022-08-17T04:03:17.604Z,1003.29
2022-08-17T04:04:17.580Z,1003.28
2022-08-17T04:05:17.572Z,1003.30
2022-08-17T04:06:17.554Z,1003.31
2022-08-17T04:07:17.550Z,1003.34
2022-08-17T04:08:17.549Z,1003.33
2022-08-17T04:09:17.524Z,1003.34
2022-08-17T04:10:17.515Z,1003.34
2022-08-17T04:11:17.497Z,1003.31
2022-08-17T04:12:17.493Z,1003.35
2022-08-17T04:13:24.888Z,1003.32
2022-08-17T04:14:18.483Z,1003.31
2022-08-17T04:15:17.452Z,1003.30
2022-08-17T04:16:17.446Z,1003.28
2022-08-17T04:17:17.436Z,1003.30
2022-08-17T04:18:17.429Z,1003.31
2022-08-17T04:19:17.416Z,1003.30
2022-08-17T04:20:17.400Z,1003.29
2022-08-17T04:21:17.390Z,1003.29
2022-08-17T04:22:33.156Z,1003.31
2022-08-17T04:23:18.380Z,1003.26
2022-08-17T04:24:17.351Z,1003.26
2022-08-17T04:25:17.341Z,1003.26
2022-08-17T04:26:52.209Z,1003.24
2022-08-17T04:27:18.320Z,1003.22
2022-08-17T04:28:17.327Z,1003.21
2022-08-17T04:29:17.292Z,1003.25
2022-08-17T04:30:17.279Z,1003.27
2022-08-17T04:31:17.270Z,1003.28
2022-08-17T04:32:19.619Z,1003.31
2022-08-17T04:33:18.275Z,1003.27
2022-08-17T04:34:19.558Z,1003.37
2022-08-17T04:35:17.229Z,1003.41
2022-08-17T04:36:17.214Z,1003.38
2022-08-17T04:37:17.205Z,1003.40
2022-08-17T04:38:17.256Z,1003.37
2022-08-17T04:39:17.178Z,1003.43
2022-08-17T04:40:17.199Z,1003.37
2022-08-17T04:41:17.160Z,1003.39
2022-08-17T04:42:17.247Z,1003.39
2022-08-17T04:43:18.758Z,1003.34
2022-08-17T04:44:36.788Z,1003.40
2022-08-17T04:45:18.112Z,1003.40
2022-08-17T04:46:17.098Z,1003.45
2022-08-17T04:47:17.094Z,1003.44
2022-08-17T04:48:17.109Z,1003.42
2022-08-17T04:49:17.073Z,1003.45
2022-08-17T04:50:17.061Z,1003.45
2022-08-17T04:51:17.054Z,1003.41
2022-08-17T04:52:32.212Z,1003.42
2022-08-17T04:53:18.035Z,1003.47
2022-08-17T04:54:17.018Z,1003.45
2022-08-17T04:55:16.999Z,1003.45
2022-08-17T04:56:18.230Z,1003.40
2022-08-17T04:57:16.983Z,1003.39
2022-08-17T04:58:16.986Z,1003.38
2022-08-17T04:59:16.955Z,1003.37
2022-08-17T05:00:16.941Z,1003.38
2022-08-17T05:01:17.018Z,1003.41
2022-08-17T05:02:17.949Z,1003.41
2022-08-17T05:03:16.931Z,1003.43
2022-08-17T05:04:34.246Z,1003.42
2022-08-17T05:05:17.884Z,1003.43
2022-08-17T05:06:16.882Z,1003.39
2022-08-17T05:07:22.577Z,1003.38
2022-08-17T05:08:17.884Z,1003.38
2022-08-17T05:09:16.846Z,1003.32
2022-08-17T05:10:16.828Z,1003.33
2022-08-17T05:11:16.822Z,1003.25
2022-08-17T05:12:16.814Z,1003.26
2022-08-17T05:13:16.818Z,1003.27
2022-08-17T05:14:16.795Z,1003.29
2022-08-17T05:15:16.772Z,1003.37
2022-08-17T05:16:16.771Z,1003.37
2022-08-17T05:17:16.775Z,1003.39
2022-08-17T05:18:16.756Z,1003.37
2022-08-17T05:19:16.734Z,1003.34
2022-08-17T05:20:16.727Z,1003.32
2022-08-17T05:21:16.711Z,1003.32
2022-08-17T05:22:16.694Z,1003.28
2022-08-17T05:23:16.707Z,1003.28
2022-08-17T05:24:42.618Z,1003.26
2022-08-17T05:25:17.665Z,1003.27
2022-08-17T05:26:26.445Z,1003.25
2022-08-17T05:27:18.935Z,1003.31
2022-08-17T05:28:16.648Z,1003.32
2022-08-17T05:29:16.623Z,1003.38
2022-08-17T05:30:16.612Z,1003.41
2022-08-17T05:31:16.598Z,1003.41
2022-08-17T05:32:38.184Z,1003.37
2022-08-17T05:33:17.587Z,1003.31
2022-08-17T05:34:16.560Z,1003.27
2022-08-17T05:35:16.547Z,1003.21
2022-08-17T05:36:43.093Z,1003.19
2022-08-17T05:37:17.533Z,1003.17
2022-08-17T05:38:16.534Z,1003.21
2022-08-17T05:39:17.442Z,1003.17
2022-08-17T05:40:16.490Z,1003.16
2022-08-17T05:41:16.501Z,1003.24
2022-08-17T05:42:16.468Z,1003.22
2022-08-17T05:43:16.474Z,1003.23
2022-08-17T05:44:16.471Z,1003.25
2022-08-17T05:45:16.434Z,1003.24
2022-08-17T05:46:17.430Z,1003.23
2022-08-17T05:47:16.416Z,1003.23
2022-08-17T05:48:16.423Z,1003.30
2022-08-17T05:49:16.390Z,1003.33
2022-08-17T05:50:18.055Z,1003.33
2022-08-17T05:51:16.366Z,1003.31
2022-08-17T05:52:19.762Z,1003.36
2022-08-17T05:53:16.361Z,1003.40
2022-08-17T05:54:16.343Z,1003.44
2022-08-17T05:55:16.331Z,1003.45
2022-08-17T05:56:29.569Z,1003.47
2022-08-17T05:57:17.305Z,1003.47
2022-08-17T05:58:16.302Z,1003.48
2022-08-17T05:59:16.283Z,1003.46
2022-08-17T06:00:16.268Z,1003.45
2022-08-17T06:01:16.432Z,1003.39
2022-08-17T06:02:16.243Z,1003.40
2022-08-17T06:03:16.241Z,1003.41
2022-08-17T06:04:16.229Z,1003.40
2022-08-17T06:05:16.215Z,1003.42
2022-08-17T06:06:16.215Z,1003.47
2022-08-17T06:07:16.185Z,1003.47
2022-08-17T06:08:16.196Z,1003.45
2022-08-17T06:09:18.806Z,1003.49
2022-08-17T06:10:17.154Z,1003.56
2022-08-17T06:11:16.150Z,1003.64
2022-08-17T06:12:19.743Z,1003.68
2022-08-17T06:13:16.142Z,1003.76
2022-08-17T06:14:16.111Z,1003.79
2022-08-17T06:15:16.105Z,1003.79
2022-08-17T06:16:25.832Z,1003.83
2022-08-17T06:17:17.074Z,1003.84
2022-08-17T06:18:19.094Z,1003.87
2022-08-17T06:19:16.061Z,1003.86
2022-08-17T06:20:16.050Z,1003.92
2022-08-17T06:21:16.039Z,1003.93
2022-08-17T06:22:16.028Z,1003.94
2022-08-17T06:23:16.015Z,1003.96
2022-08-17T06:24:16.018Z,1003.86
2022-08-17T06:25:15.996Z,1003.93
2022-08-17T06:26:15.984Z,1004.00
2022-08-17T06:27:15.966Z,1003.98
2022-08-17T06:28:15.955Z,1003.89
2022-08-17T06:29:18.429Z,1003.81
2022-08-17T06:30:15.941Z,1003.77
2022-08-17T06:31:15.926Z,1003.78
2022-08-17T06:32:15.920Z,1003.74
2022-08-17T06:33:15.900Z,1003.79
2022-08-17T06:34:15.910Z,1003.88
2022-08-17T06:35:15.878Z,1003.88
2022-08-17T06:36:16.222Z,1003.88
2022-08-17T06:37:15.865Z,1003.84
2022-08-17T06:38:37.978Z,1003.87
2022-08-17T06:39:16.850Z,1003.92
2022-08-17T06:40:15.961Z,1003.97
2022-08-17T06:41:15.815Z,1004.00
2022-08-17T06:42:54.813Z,1004.05
2022-08-17T06:43:16.796Z,1004.03
2022-08-17T06:44:50.154Z,1004.03
2022-08-17T06:45:16.794Z,1004.01
2022-08-17T06:46:15.768Z,1004.02
2022-08-17T06:47:15.758Z,1003.98
2022-08-17T06:48:16.734Z,1003.98
2022-08-17T06:49:15.736Z,1003.95
2022-08-17T06:50:15.728Z,1003.92
2022-08-17T06:51:15.708Z,1003.89
2022-08-17T06:52:37.199Z,1003.87
2022-08-17T06:53:16.686Z,1003.87
2022-08-17T06:54:15.691Z,1003.86
2022-08-17T06:55:18.077Z,1003.91
2022-08-17T06:56:15.654Z,1003.90
2022-08-17T06:57:15.653Z,1003.89
2022-08-17T06:58:16.668Z,1003.90
2022-08-17T06:59:15.626Z,1003.91
2022-08-17T07:00:15.602Z,1003.84
2022-08-17T07:01:15.618Z,1003.83
2022-08-17T07:02:15.586Z,1003.83
2022-08-17T07:03:15.569Z,1003.76
2022-08-17T07:04:15.580Z,1003.78
2022-08-17T07:05:15.546Z,1003.74
2022-08-17T07:06:15.534Z,1003.72
2022-08-17T07:07:15.528Z,1003.74
2022-08-17T07:08:15.513Z,1003.75
2022-08-17T07:09:15.528Z,1003.76
2022-08-17T07:10:15.490Z,1003.74
2022-08-17T07:11:15.478Z,1003.71
2022-08-17T07:12:15.467Z,1003.72
2022-08-17T07:13:15.468Z,1003.77
2022-08-17T07:14:17.482Z,1003.83
2022-08-17T07:15:15.439Z,1003.86
2022-08-17T07:16:15.421Z,1003.89
2022-08-17T07:17:15.410Z,1003.93
2022-08-17T07:18:15.406Z,1003.95
2022-08-17T07:19:15.409Z,1004.03
2022-08-17T07:20:15.385Z,1004.03
2022-08-17T07:21:17.977Z,1004.04
2022-08-17T07:22:15.355Z,1004.07
2022-08-17T07:23:15.351Z,1004.10
2022-08-17T07:24:26.211Z,1004.13
2022-08-17T07:25:16.317Z,1004.17
2022-08-17T07:26:15.309Z,1004.17
2022-08-17T07:27:15.411Z,1004.18
2022-08-17T07:28:16.293Z,1004.20
2022-08-17T07:29:15.297Z,1004.21
2022-08-17T07:30:15.327Z,1004.23
2022-08-17T07:31:15.253Z,1004.23
2022-08-17T07:32:15.248Z,1004.27
2022-08-17T07:33:15.229Z,1004.26
2022-08-17T07:34:15.237Z,1004.27
2022-08-17T07:35:15.678Z,1004.30
2022-08-17T07:36:15.205Z,1004.32
2022-08-17T07:37:15.183Z,1004.33
2022-08-17T07:38:24.820Z,1004.37
2022-08-17T07:39:16.179Z,1004.35
2022-08-17T07:40:16.846Z,1004.37
2022-08-17T07:41:15.139Z,1004.34
2022-08-17T07:42:15.134Z,1004.31
2022-08-17T07:43:18.738Z,1004.31
2022-08-17T07:44:16.119Z,1004.33
2022-08-17T07:45:15.091Z,1004.34
2022-08-17T07:46:15.090Z,1004.34
2022-08-17T07:47:15.081Z,1004.35
2022-08-17T07:48:15.779Z,1004.38
2022-08-17T07:49:15.062Z,1004.37
2022-08-17T07:50:15.043Z,1004.34
2022-08-17T07:51:15.033Z,1004.35
2022-08-17T07:52:47.769Z,1004.36
2022-08-17T07:53:16.010Z,1004.37
2022-08-17T07:54:15.208Z,1004.42
2022-08-17T07:55:14.990Z,1004.41
2022-08-17T07:56:14.981Z,1004.43
2022-08-17T07:57:15.033Z,1004.43
2022-08-17T07:58:14.959Z,1004.41
2022-08-17T07:59:14.936Z,1004.43
2022-08-17T08:00:16.380Z,1004.43
2022-08-17T08:01:14.993Z,1004.48
2022-08-17T08:02:15.053Z,1004.53
2022-08-17T08:03:14.935Z,1004.54
2022-08-17T08:04:19.311Z,1004.54
2022-08-17T08:05:15.886Z,1004.55
2022-08-17T08:06:15.860Z,1004.53
2022-08-17T08:07:14.846Z,1004.54
2022-08-17T08:08:14.839Z,1004.55
2022-08-17T08:09:14.829Z,1004.53
2022-08-17T08:10:14.828Z,1004.54
2022-08-17T08:11:14.808Z,1004.52
2022-08-17T08:12:15.983Z,1004.57
2022-08-17T08:13:14.790Z,1004.57
2022-08-17T08:14:14.776Z,1004.58
2022-08-17T08:15:14.777Z,1004.59
2022-08-17T08:16:14.757Z,1004.55
2022-08-17T08:17:14.734Z,1004.59
2022-08-17T08:18:14.728Z,1004.59
2022-08-17T08:19:20.539Z,1004.59
2022-08-17T08:20:19.704Z,1004.60
2022-08-17T08:21:15.738Z,1004.60
2022-08-17T08:22:14.684Z,1004.59
2022-08-17T08:23:14.674Z,1004.59
2022-08-17T08:24:14.667Z,1004.61
2022-08-17T08:25:14.674Z,1004.63
2022-08-17T08:26:18.407Z,1004.60
2022-08-17T08:27:14.630Z,1004.63
2022-08-17T08:28:14.626Z,1004.62
2022-08-17T08:29:14.662Z,1004.68
2022-08-17T08:30:14.613Z,1004.65
2022-08-17T08:31:14.588Z,1004.64
2022-08-17T08:32:14.567Z,1004.62
2022-08-17T08:33:14.566Z,1004.62
2022-08-17T08:34:59.029Z,1004.61
2022-08-17T08:35:15.555Z,1004.64
2022-08-17T08:36:14.530Z,1004.61
2022-08-17T08:37:22.642Z,1004.60
2022-08-17T08:38:15.509Z,1004.61
2022-08-17T08:39:14.503Z,1004.63
2022-08-17T08:40:14.621Z,1004.61
2022-08-17T08:41:14.480Z,1004.61
2022-08-17T08:42:14.462Z,1004.56
2022-08-17T08:43:14.450Z,1004.53
2022-08-17T08:44:14.441Z,1004.53
2022-08-17T08:45:14.431Z,1004.53
2022-08-17T08:46:14.407Z,1004.56
2022-08-17T08:47:15.405Z,1004.58
2022-08-17T08:48:22.840Z,1004.59
2022-08-17T08:49:15.383Z,1004.67
2022-08-17T08:50:37.221Z,1004.75
2022-08-17T08:51:15.359Z,1004.73
2022-08-17T08:52:14.341Z,1004.79
2022-08-17T08:53:14.396Z,1004.80
2022-08-17T08:54:14.374Z,1004.82
2022-08-17T08:55:14.328Z,1004.86
2022-08-17T08:56:14.308Z,1004.90
2022-08-17T08:57:34.132Z,1004.89
2022-08-17T08:58:31.313Z,1004.89
2022-08-17T08:59:15.266Z,1004.96
2022-08-17T09:00:14.265Z,1004.97
2022-08-17T09:01:16.661Z,1004.96
2022-08-17T09:02:14.226Z,1004.93
2022-08-17T09:03:14.217Z,1004.98
2022-08-17T09:04:25.179Z,1004.96
2022-08-17T09:05:15.997Z,1004.97
2022-08-17T09:06:33.230Z,1004.99
2022-08-17T09:07:15.176Z,1004.92
2022-08-17T09:08:14.161Z,1004.95
2022-08-17T09:09:14.158Z,1004.90
2022-08-17T09:10:14.164Z,1004.91
2022-08-17T09:11:14.125Z,1004.84
2022-08-17T09:12:14.119Z,1004.84
2022-08-17T09:13:14.101Z,1004.85
2022-08-17T09:14:21.129Z,1004.86
2022-08-17T09:15:15.102Z,1004.84
2022-08-17T09:16:14.070Z,1004.87
2022-08-17T09:17:14.058Z,1004.88
2022-08-17T09:19:00.878Z,1004.97
2022-08-17T09:19:15.040Z,1004.98
2022-08-17T09:20:27.577Z,1005.02
2022-08-17T09:21:15.011Z,1005.06
2022-08-17T09:22:14.012Z,1005.07
2022-08-17T09:23:13.999Z,1005.08
2022-08-17T09:24:13.979Z,1005.08
2022-08-17T09:25:14.980Z,1005.07
2022-08-17T09:26:13.962Z,1005.06
2022-08-17T09:27:13.944Z,1005.10
2022-08-17T09:28:13.942Z,1005.09
2022-08-17T09:29:13.921Z,1005.09
2022-08-17T09:30:13.932Z,1005.06
2022-08-17T09:31:13.898Z,1005.08
2022-08-17T09:32:14.005Z,1005.07
2022-08-17T09:33:13.884Z,1005.07
2022-08-17T09:34:13.876Z,1005.08
2022-08-17T09:35:13.874Z,1005.08
2022-08-17T09:36:13.841Z,1005.05
2022-08-17T09:37:13.836Z,1005.04
2022-08-17T09:38:13.820Z,1005.04
2022-08-17T09:39:13.819Z,1005.01
2022-08-17T09:40:13.896Z,1005.01
2022-08-17T09:41:13.792Z,1005.01
2022-08-17T09:42:13.771Z,1004.98
2022-08-17T09:43:13.762Z,1004.99
2022-08-17T09:44:23.382Z,1005.03
2022-08-17T09:45:14.764Z,1005.03
2022-08-17T09:46:13.735Z,1005.08
2022-08-17T09:47:13.715Z,1005.08
2022-08-17T09:48:13.712Z,1005.12
2022-08-17T09:49:13.701Z,1005.11
2022-08-17T09:50:13.703Z,1005.15
2022-08-17T09:51:13.676Z,1005.19
2022-08-17T09:52:13.669Z,1005.20
2022-08-17T09:53:13.650Z,1005.19
2022-08-17T09:54:37.616Z,1005.21
2022-08-17T09:55:14.642Z,1005.18
2022-08-17T09:56:13.621Z,1005.15
2022-08-17T09:57:29.195Z,1005.11
2022-08-17T09:58:14.596Z,1005.13
2022-08-17T09:59:13.603Z,1005.11
2022-08-17T10:00:13.594Z,1005.08
2022-08-17T10:01:13.655Z,1005.02
2022-08-17T10:02:13.731Z,1005.01
2022-08-17T10:03:13.545Z,1004.99
2022-08-17T10:04:13.558Z,1004.93
2022-08-17T10:05:13.591Z,1004.88
2022-08-17T10:06:13.504Z,1004.85
2022-08-17T10:07:13.496Z,1004.80
2022-08-17T10:08:13.482Z,1004.81
2022-08-17T10:09:13.473Z,1004.78
2022-08-17T10:10:14.381Z,1004.77
2022-08-17T10:11:13.456Z,1004.81
2022-08-17T10:12:13.452Z,1004.79
2022-08-17T10:13:13.435Z,1004.76
2022-08-17T10:14:35.905Z,1004.79
2022-08-17T10:15:14.610Z,1004.83
2022-08-17T10:16:13.398Z,1004.71
2022-08-17T10:17:13.382Z,1004.69
2022-08-17T10:18:13.375Z,1004.64
2022-08-17T10:19:13.366Z,1004.64
2022-08-17T10:20:13.348Z,1004.66
2022-08-17T10:21:13.354Z,1004.64
2022-08-17T10:22:14.962Z,1004.66
2022-08-17T10:23:14.318Z,1004.66
2022-08-17T10:24:13.306Z,1004.64
2022-08-17T10:25:22.748Z,1004.63
2022-08-17T10:26:14.276Z,1004.64
2022-08-17T10:27:13.267Z,1004.68
2022-08-17T10:28:20.109Z,1004.68
2022-08-17T10:29:14.248Z,1004.66
2022-08-17T10:30:13.251Z,1004.71
2022-08-17T10:32:14.212Z,1004.81
2022-08-17T10:33:13.211Z,1004.82
2022-08-17T10:34:13.197Z,1004.85
2022-08-17T10:35:13.211Z,1004.84
2022-08-17T10:36:13.175Z,1004.88
2022-08-17T10:37:13.158Z,1004.90
2022-08-17T10:38:13.153Z,1004.88
2022-08-17T10:39:13.144Z,1004.89
2022-08-17T10:40:13.285Z,1004.87
2022-08-17T10:41:13.117Z,1004.92
2022-08-17T10:42:13.107Z,1004.91
2022-08-17T10:43:14.092Z,1004.91
2022-08-17T10:44:37.944Z,1004.91
2022-08-17T10:45:14.097Z,1004.94
2022-08-17T10:46:30.561Z,1004.95
2022-08-17T10:47:14.061Z,1004.95
2022-08-17T10:48:13.443Z,1004.98
2022-08-17T10:49:13.028Z,1005.02
2022-08-17T10:50:13.140Z,1005.04
2022-08-17T10:51:13.004Z,1005.06
2022-08-17T10:52:12.999Z,1005.08
2022-08-17T10:53:15.500Z,1005.21
2022-08-17T10:54:13.975Z,1005.17
2022-08-17T10:55:12.975Z,1005.16
2022-08-17T10:56:12.964Z,1005.30
2022-08-17T10:57:12.937Z,1005.29
2022-08-17T10:58:12.949Z,1005.35
2022-08-17T10:59:12.926Z,1005.30
2022-08-17T11:00:13.007Z,1005.35
2022-08-17T11:01:13.004Z,1005.32
2022-08-17T11:02:12.889Z,1005.20
2022-08-17T11:03:12.896Z,1005.15
2022-08-17T11:04:12.886Z,1005.12
2022-08-17T11:05:12.886Z,1005.14
2022-08-17T11:06:12.847Z,1005.11
2022-08-17T11:07:12.835Z,1005.08
2022-08-17T11:08:12.824Z,1005.11
2022-08-17T11:09:12.816Z,1005.08
2022-08-17T11:10:12.815Z,1005.08
2022-08-17T11:11:12.786Z,1005.11
2022-08-17T11:12:12.849Z,1005.09
2022-08-17T11:13:12.771Z,1005.14
2022-08-17T11:14:12.787Z,1005.11
2022-08-17T11:15:12.759Z,1005.12
2022-08-17T11:16:12.733Z,1005.14
2022-08-17T11:17:12.820Z,1005.19
2022-08-17T11:18:12.722Z,1005.21
2022-08-17T11:19:12.697Z,1005.17
2022-08-17T11:20:12.698Z,1005.20
2022-08-17T11:21:12.689Z,1005.18
2022-08-17T11:22:12.763Z,1005.22
2022-08-17T11:23:12.660Z,1005.20
2022-08-17T11:24:12.657Z,1005.18
2022-08-17T11:25:12.652Z,1005.16
2022-08-17T11:26:12.622Z,1005.16
2022-08-17T11:27:12.620Z,1005.20
2022-08-17T11:28:12.601Z,1005.16
2022-08-17T11:29:12.591Z,1005.17
2022-08-17T11:30:12.599Z,1005.16
2022-08-17T11:31:12.568Z,1005.10
2022-08-17T11:32:12.567Z,1005.08
2022-08-17T11:33:12.547Z,1005.08
2022-08-17T11:34:12.561Z,1005.12
2022-08-17T11:35:12.545Z,1005.08
2022-08-17T11:36:12.523Z,1005.05
2022-08-17T11:37:12.513Z,1005.05
2022-08-17T11:38:16.379Z,1005.00
2022-08-17T11:39:12.491Z,1005.04
2022-08-17T11:40:12.612Z,1005.04
2022-08-17T11:41:12.463Z,1005.07
2022-08-17T11:42:12.511Z,1005.04
2022-08-17T11:43:12.439Z,1005.07
2022-08-17T11:44:12.439Z,1005.03
2022-08-17T11:45:16.244Z,1005.03
2022-08-17T11:46:13.412Z,1005.03
2022-08-17T11:47:12.394Z,1005.02
2022-08-17T11:48:28.967Z,1005.04
2022-08-17T11:49:13.377Z,1005.00
2022-08-17T11:50:12.398Z,1005.06
2022-08-17T11:51:12.353Z,1005.01
2022-08-17T11:52:12.355Z,1005.06
2022-08-17T11:53:12.348Z,1005.04
2022-08-17T11:54:32.444Z,1005.06
2022-08-17T11:55:34.464Z,1005.04
2022-08-17T11:56:13.303Z,1005.06
2022-08-17T11:57:12.286Z,1005.05
2022-08-17T11:58:12.273Z,1005.05
2022-08-17T11:59:12.268Z,1005.03
2022-08-17T12:00:12.270Z,1005.03
2022-08-17T12:01:13.596Z,1004.99
2022-08-17T12:02:12.236Z,1004.98
2022-08-17T12:03:12.311Z,1004.96
2022-08-17T12:04:12.287Z,1004.96
2022-08-17T12:05:12.357Z,1004.94
2022-08-17T12:06:12.194Z,1004.96